createdAt,value
2023-04-01T00:00:17.595Z,992.69
2023-04-01T00:01:17.891Z,992.66
2023-04-01T00:02:17.612Z,992.65
2023-04-01T00:03:17.796Z,992.65
2023-04-01T00:04:17.618Z,992.63
2023-04-01T00:05:17.587Z,992.65
2023-04-01T00:06:17.591Z,992.67
2023-04-01T00:07:17.586Z,992.64
2023-04-01T00:08:17.584Z,992.66
2023-04-01T00:09:17.583Z,992.68
2023-04-01T00:10:17.578Z,992.68
2023-04-01T00:11:17.582Z,992.66
2023-04-01T00:12:17.583Z,992.64
2023-04-01T00:13:17.578Z,992.65
2023-04-01T00:14:17.586Z,992.66
2023-04-01T00:15:17.595Z,992.70
2023-04-01T00:16:22.190Z,992.68
2023-04-01T00:17:17.571Z,992.71
2023-04-01T00:18:17.563Z,992.68
2023-04-01T00:19:17.588Z,992.69
2023-04-01T00:20:17.564Z,992.70
2023-04-01T00:21:17.572Z,992.70
2023-04-01T00:22:17.555Z,992.72
2023-04-01T00:23:17.556Z,992.66
2023-04-01T00:24:17.566Z,992.68
2023-04-01T00:25:17.559Z,992.67
2023-04-01T00:26:17.563Z,992.64
2023-04-01T00:27:17.553Z,992.64
2023-04-01T00:28:17.551Z,992.58
2023-04-01T00:29:17.561Z,992.62
2023-04-01T00:30:17.544Z,992.60
2023-04-01T00:31:17.666Z,992.55
2023-04-01T00:32:17.542Z,992.61
2023-04-01T00:33:17.578Z,992.60
2023-04-01T00:34:17.537Z,992.62
2023-04-01T00:35:17.564Z,992.59
2023-04-01T00:36:17.552Z,992.58
2023-04-01T00:37:17.545Z,992.57
2023-04-01T00:38:17.540Z,992.58
2023-04-01T00:39:17.549Z,992.59
2023-04-01T00:40:17.535Z,992.62
2023-04-01T00:41:17.533Z,992.61
2023-04-01T00:42:17.533Z,992.57
2023-04-01T00:43:17.527Z,992.60
2023-04-01T00:44:17.532Z,992.58
2023-04-01T00:45:17.527Z,992.59
2023-04-01T00:46:17.556Z,992.58
2023-04-01T00:47:17.529Z,992.63
2023-04-01T00:48:17.518Z,992.61
2023-04-01T00:49:17.529Z,992.61
2023-04-01T00:50:17.517Z,992.63
2023-04-01T00:51:17.548Z,992.62
2023-04-01T00:52:17.520Z,992.64
2023-04-01T00:53:17.522Z,992.62
2023-04-01T00:54:17.508Z,992.59
2023-04-01T00:55:17.524Z,992.60
2023-04-01T00:56:17.512Z,992.60
2023-04-01T00:57:17.591Z,992.63
2023-04-01T00:58:17.505Z,992.62
2023-04-01T00:59:17.513Z,992.59
2023-04-01T01:00:17.505Z,992.59
2023-04-01T01:01:17.587Z,992.61
2023-04-01T01:02:17.533Z,992.57
2023-04-01T01:03:17.531Z,992.59
2023-04-01T01:04:17.501Z,992.61
2023-04-01T01:05:17.495Z,992.59
2023-04-01T01:06:17.490Z,992.63
2023-04-01T01:07:17.529Z,992.60
2023-04-01T01:08:17.486Z,992.62
2023-04-01T01:09:17.498Z,992.63
2023-04-01T01:10:17.486Z,992.63
2023-04-01T01:11:17.990Z,992.63
2023-04-01T01:12:17.487Z,992.63
2023-04-01T01:13:17.485Z,992.65
2023-04-01T01:14:17.476Z,992.64
2023-04-01T01:15:17.495Z,992.63
2023-04-01T01:16:17.499Z,992.65
2023-04-01T01:17:17.471Z,992.65
2023-04-01T01:18:17.509Z,992.64
2023-04-01T01:19:17.478Z,992.65
2023-04-01T01:20:25.980Z,992.69
2023-04-01T01:21:17.462Z,992.65
2023-04-01T01:22:17.466Z,992.66
2023-04-01T01:23:17.492Z,992.66
2023-04-01T01:24:17.459Z,992.65
2023-04-01T01:25:17.478Z,992.68
2023-04-01T01:26:17.461Z,992.67
2023-04-01T01:27:17.462Z,992.63
2023-04-01T01:28:17.454Z,992.66
2023-04-01T01:29:17.461Z,992.66
2023-04-01T01:30:17.450Z,992.68
2023-04-01T01:31:17.483Z,992.65
2023-04-01T01:32:17.445Z,992.69
2023-04-01T01:33:17.452Z,992.66
2023-04-01T01:34:17.448Z,992.70
2023-04-01T01:35:17.449Z,992.67
2023-04-01T01:36:17.452Z,992.71
2023-04-01T01:37:17.450Z,992.69
2023-04-01T01:38:17.434Z,992.71
2023-04-01T01:39:17.462Z,992.68
2023-04-01T01:40:17.429Z,992.70
2023-04-01T01:41:17.434Z,992.66
2023-04-01T01:42:17.428Z,992.69
2023-04-01T01:43:17.429Z,992.68
2023-04-01T01:44:17.427Z,992.69
2023-04-01T01:45:17.430Z,992.67
2023-04-01T01:46:17.502Z,992.70
2023-04-01T01:47:17.422Z,992.71
2023-04-01T01:48:17.429Z,992.66
2023-04-01T01:49:17.420Z,992.68
2023-04-01T01:50:17.412Z,992.65
2023-04-01T01:51:17.418Z,992.69
2023-04-01T01:52:17.408Z,992.74
2023-04-01T01:53:17.421Z,992.75
2023-04-01T01:54:17.406Z,992.74
2023-04-01T01:55:17.430Z,992.76
2023-04-01T01:56:17.406Z,992.73
2023-04-01T01:57:17.462Z,992.79
2023-04-01T01:58:17.407Z,992.78
2023-04-01T01:59:17.402Z,992.80
2023-04-01T02:00:17.414Z,992.81
2023-04-01T02:01:17.427Z,992.81
2023-04-01T02:02:17.394Z,992.82
2023-04-01T02:03:17.389Z,992.82
2023-04-01T02:04:17.436Z,992.78
2023-04-01T02:05:17.383Z,992.80
2023-04-01T02:06:17.389Z,992.80
2023-04-01T02:07:17.385Z,992.78
2023-04-01T02:08:17.409Z,992.81
2023-04-01T02:09:17.382Z,992.80
2023-04-01T02:10:17.381Z,992.80
2023-04-01T02:11:17.400Z,992.79
2023-04-01T02:12:17.377Z,992.82
2023-04-01T02:13:17.385Z,992.80
2023-04-01T02:14:17.394Z,992.83
2023-04-01T02:15:17.374Z,992.78
2023-04-01T02:16:17.405Z,992.79
2023-04-01T02:17:17.372Z,992.77
2023-04-01T02:18:17.369Z,992.81
2023-04-01T02:19:17.363Z,992.78
2023-04-01T02:20:17.368Z,992.84
2023-04-01T02:21:17.370Z,992.79
2023-04-01T02:22:17.373Z,992.82
2023-04-01T02:23:17.355Z,992.83
2023-04-01T02:24:17.356Z,992.83
2023-04-01T02:25:17.346Z,992.83
2023-04-01T02:26:17.367Z,992.85
2023-04-01T02:27:17.373Z,992.79
2023-04-01T02:28:17.364Z,992.82
2023-04-01T02:29:17.341Z,992.85
2023-04-01T02:30:17.343Z,992.77
2023-04-01T02:31:17.368Z,992.77
2023-04-01T02:32:17.351Z,992.82
2023-04-01T02:33:17.338Z,992.84
2023-04-01T02:34:17.357Z,992.81
2023-04-01T02:35:17.336Z,992.81
2023-04-01T02:36:17.386Z,992.80
2023-04-01T02:37:17.331Z,992.84
2023-04-01T02:38:17.340Z,992.82
2023-04-01T02:39:17.332Z,992.86
2023-04-01T02:40:17.326Z,992.88
2023-04-01T02:41:17.327Z,992.86
2023-04-01T02:42:17.344Z,992.87
2023-04-01T02:43:17.349Z,992.85
2023-04-01T02:44:17.322Z,992.89
2023-04-01T02:45:17.322Z,992.89
2023-04-01T02:46:17.385Z,992.94
2023-04-01T02:47:17.317Z,992.91
2023-04-01T02:48:17.320Z,992.93
2023-04-01T02:49:17.312Z,992.94
2023-04-01T02:50:17.320Z,993.00
2023-04-01T02:51:18.370Z,992.99
2023-04-01T02:52:17.318Z,993.02
2023-04-01T02:53:17.310Z,993.05
2023-04-01T02:54:17.311Z,993.05
2023-04-01T02:55:17.303Z,993.02
2023-04-01T02:56:17.306Z,993.03
2023-04-01T02:57:17.384Z,993.05
2023-04-01T02:58:17.301Z,993.04
2023-04-01T02:59:17.344Z,993.04
2023-04-01T03:00:17.333Z,993.02
2023-04-01T03:01:17.324Z,993.05
2023-04-01T03:02:17.326Z,993.08
2023-04-01T03:03:17.372Z,993.03
2023-04-01T03:04:17.292Z,993.04
2023-04-01T03:05:17.284Z,993.04
2023-04-01T03:06:17.301Z,993.04
2023-04-01T03:07:17.311Z,993.04
2023-04-01T03:08:17.290Z,993.02
2023-04-01T03:09:17.283Z,993.04
2023-04-01T03:10:17.280Z,993.04
2023-04-01T03:11:17.282Z,993.03
2023-04-01T03:12:17.282Z,993.03
2023-04-01T03:13:17.278Z,993.02
2023-04-01T03:14:17.277Z,993.04
2023-04-01T03:15:17.296Z,993.03
2023-04-01T03:16:17.304Z,993.01
2023-04-01T03:17:17.268Z,993.01
2023-04-01T03:18:17.272Z,993.05
2023-04-01T03:19:17.263Z,993.05
2023-04-01T03:20:17.272Z,993.04
2023-04-01T03:21:17.264Z,993.03
2023-04-01T03:22:17.258Z,993.01
2023-04-01T03:23:17.258Z,993.01
2023-04-01T03:24:17.257Z,993.05
2023-04-01T03:25:17.258Z,993.04
2023-04-01T03:26:17.269Z,993.02
2023-04-01T03:27:17.247Z,993.08
2023-04-01T03:28:17.251Z,993.06
2023-04-01T03:29:17.268Z,993.10
2023-04-01T03:30:17.304Z,993.08
2023-04-01T03:31:17.372Z,993.10
2023-04-01T03:32:17.243Z,993.10
2023-04-01T03:33:17.238Z,993.12
2023-04-01T03:34:17.239Z,993.13
2023-04-01T03:35:17.234Z,993.14
2023-04-01T03:36:17.276Z,993.12
2023-04-01T03:37:17.232Z,993.18
2023-04-01T03:38:17.234Z,993.21
2023-04-01T03:39:17.231Z,993.21
2023-04-01T03:40:17.232Z,993.21
2023-04-01T03:41:17.229Z,993.18
2023-04-01T03:42:17.229Z,993.22
2023-04-01T03:43:17.294Z,993.22
2023-04-01T03:44:17.226Z,993.22
2023-04-01T03:45:17.217Z,993.20
2023-04-01T03:46:17.241Z,993.26
2023-04-01T03:47:17.242Z,993.22
2023-04-01T03:48:17.219Z,993.24
2023-04-01T03:49:17.213Z,993.26
2023-04-01T03:50:17.214Z,993.28
2023-04-01T03:51:17.209Z,993.31
2023-04-01T03:52:17.209Z,993.29
2023-04-01T03:53:17.215Z,993.27
2023-04-01T03:54:17.216Z,993.30
2023-04-01T03:55:17.207Z,993.31
2023-04-01T03:56:17.210Z,993.31
2023-04-01T03:57:17.230Z,993.35
2023-04-01T03:58:17.202Z,993.36
2023-04-01T03:59:17.202Z,993.36
2023-04-01T04:00:17.203Z,993.40
2023-04-01T04:01:17.211Z,993.40
2023-04-01T04:02:17.215Z,993.38
2023-04-01T04:03:17.304Z,993.41
2023-04-01T04:04:17.225Z,993.40
2023-04-01T04:05:17.200Z,993.40
2023-04-01T04:06:17.191Z,993.42
2023-04-01T04:07:17.188Z,993.42
2023-04-01T04:08:17.190Z,993.46
2023-04-01T04:09:17.187Z,993.41
2023-04-01T04:10:59.726Z,993.43
2023-04-01T04:11:59.726Z,993.45
2023-04-01T04:12:59.735Z,993.45
2023-04-01T04:13:59.728Z,993.49
2023-04-01T04:16:22.412Z,993.50
2023-04-01T04:17:22.775Z,993.47
2023-04-01T04:18:25.994Z,993.50
2023-04-01T04:23:51.045Z,993.52
2023-04-01T04:27:36.286Z,993.53
2023-04-01T04:28:36.283Z,993.57
2023-04-01T04:29:36.292Z,993.59
2023-04-01T04:30:36.272Z,993.59
2023-04-01T04:31:36.314Z,993.60
2023-04-01T04:32:36.294Z,993.57
2023-04-01T04:33:36.318Z,993.61
2023-04-01T04:34:36.276Z,993.58
2023-04-01T04:35:36.298Z,993.60
2023-04-01T04:36:36.263Z,993.62
2023-04-01T04:37:36.257Z,993.60
2023-04-01T04:38:36.261Z,993.62
2023-04-01T04:39:36.265Z,993.60
2023-04-01T04:40:36.254Z,993.64
2023-04-01T04:41:37.708Z,993.59
2023-04-01T04:42:36.255Z,993.59
2023-04-01T04:43:36.247Z,993.62
2023-04-01T04:44:36.253Z,993.64
2023-04-01T04:45:36.247Z,993.61
2023-04-01T04:46:36.269Z,993.65
2023-04-01T04:47:36.274Z,993.66
2023-04-01T04:48:36.242Z,993.66
2023-04-01T04:49:36.273Z,993.67
2023-04-01T04:50:36.237Z,993.66
2023-04-01T04:51:36.236Z,993.65
2023-04-01T04:52:36.237Z,993.66
2023-04-01T04:53:36.242Z,993.71
2023-04-01T04:54:36.239Z,993.71
2023-04-01T04:55:36.231Z,993.67
2023-04-01T04:56:36.247Z,993.69
2023-04-01T04:57:36.284Z,993.69
2023-04-01T04:58:36.227Z,993.71
2023-04-01T04:59:36.226Z,993.70
2023-04-01T05:00:36.235Z,993.71
2023-04-01T05:01:36.271Z,993.71
2023-04-01T05:02:36.356Z,993.70
2023-04-01T05:03:36.329Z,993.72
2023-04-01T05:04:36.222Z,993.75
2023-04-01T05:05:36.237Z,993.72
2023-04-01T05:06:36.209Z,993.76
2023-04-01T05:07:36.208Z,993.73
2023-04-01T05:08:36.207Z,993.80
2023-04-01T05:09:36.218Z,993.74
2023-04-01T05:10:36.204Z,993.77
2023-04-01T05:11:36.211Z,993.77
2023-04-01T05:12:36.209Z,993.80
2023-04-01T05:13:36.203Z,993.83
2023-04-01T05:14:36.200Z,993.79
2023-04-01T05:15:36.196Z,993.80
2023-04-01T05:16:36.214Z,993.81
2023-04-01T05:17:36.229Z,993.82
2023-04-01T05:18:36.192Z,993.82
2023-04-01T05:19:36.200Z,993.86
2023-04-01T05:20:36.268Z,993.83
2023-04-01T05:21:36.212Z,993.84
2023-04-01T05:22:36.189Z,993.84
2023-04-01T05:23:36.191Z,993.86
2023-04-01T05:24:36.185Z,993.87
2023-04-01T05:25:36.184Z,993.92
2023-04-01T05:26:36.182Z,993.90
2023-04-01T05:27:36.183Z,993.90
2023-04-01T05:28:36.180Z,993.91
2023-04-01T05:29:36.173Z,993.90
2023-04-01T05:30:36.221Z,993.92
2023-04-01T05:31:36.187Z,993.95
2023-04-01T05:32:36.212Z,993.94
2023-04-01T05:33:36.176Z,993.97
2023-04-01T05:34:36.168Z,993.94
2023-04-01T05:35:36.400Z,993.95
2023-04-01T05:36:36.169Z,993.96
2023-04-01T05:37:36.189Z,993.94
2023-04-01T05:38:36.164Z,993.98
2023-04-01T05:39:36.171Z,993.93
2023-04-01T05:40:36.162Z,993.96
2023-04-01T05:41:36.164Z,993.95
2023-04-01T05:42:37.717Z,993.98
2023-04-01T05:43:36.161Z,993.95
2023-04-01T05:44:36.152Z,994.01
2023-04-01T05:45:36.158Z,994.06
2023-04-01T05:46:36.243Z,994.00
2023-04-01T05:47:36.201Z,994.02
2023-04-01T05:48:36.174Z,994.06
2023-04-01T05:49:36.156Z,994.08
2023-04-01T05:50:36.148Z,994.07
2023-04-01T05:51:36.151Z,994.08
2023-04-01T05:52:36.158Z,994.05
2023-04-01T05:53:36.161Z,994.08
2023-04-01T05:54:36.141Z,994.09
2023-04-01T05:55:36.143Z,994.09
2023-04-01T05:56:36.137Z,994.11
2023-04-01T05:57:36.234Z,994.13
2023-04-01T05:58:36.132Z,994.10
2023-04-01T05:59:36.135Z,994.13
2023-04-01T06:00:36.131Z,994.15
2023-04-01T06:01:36.131Z,994.13
2023-04-01T06:02:36.185Z,994.13
2023-04-01T06:03:36.252Z,994.16
2023-04-01T06:04:36.163Z,994.16
2023-04-01T06:05:36.124Z,994.14
2023-04-01T06:06:36.125Z,994.16
2023-04-01T06:07:36.123Z,994.20
2023-04-01T06:08:36.118Z,994.23
2023-04-01T06:09:36.137Z,994.24
2023-04-01T06:10:36.114Z,994.19
2023-04-01T06:11:36.114Z,994.23
2023-04-01T06:12:36.112Z,994.28
2023-04-01T06:13:36.115Z,994.22
2023-04-01T06:14:36.106Z,994.25
2023-04-01T06:15:36.109Z,994.23
2023-04-01T06:16:36.136Z,994.25
2023-04-01T06:17:36.122Z,994.29
2023-04-01T06:18:36.115Z,994.29
2023-04-01T06:19:36.116Z,994.31
2023-04-01T06:20:36.121Z,994.36
2023-04-01T06:21:36.152Z,994.35
2023-04-01T06:22:36.108Z,994.38
2023-04-01T06:23:36.104Z,994.37
2023-04-01T06:24:36.119Z,994.37
2023-04-01T06:25:36.330Z,994.41
2023-04-01T06:26:36.093Z,994.40
2023-04-01T06:27:36.103Z,994.40
2023-04-01T06:28:36.089Z,994.44
2023-04-01T06:29:36.124Z,994.46
2023-04-01T06:30:36.120Z,994.48
2023-04-01T06:31:36.131Z,994.44
2023-04-01T06:32:36.159Z,994.46
2023-04-01T06:33:36.096Z,994.50
2023-04-01T06:34:36.075Z,994.52
2023-04-01T06:35:36.437Z,994.47
2023-04-01T06:36:36.154Z,994.55
2023-04-01T06:37:36.096Z,994.53
2023-04-01T06:38:36.075Z,994.53
2023-04-01T06:39:36.082Z,994.49
2023-04-01T06:40:36.079Z,994.56
2023-04-01T06:41:36.102Z,994.55
2023-04-01T06:42:36.070Z,994.54
2023-04-01T06:43:36.075Z,994.55
2023-04-01T06:44:36.074Z,994.52
2023-04-01T06:45:36.404Z,994.51
2023-04-01T06:46:36.063Z,994.50
2023-04-01T06:47:36.114Z,994.54
2023-04-01T06:48:36.069Z,994.57
2023-04-01T06:49:36.063Z,994.56
2023-04-01T06:50:36.058Z,994.56
2023-04-01T06:51:36.062Z,994.54
2023-04-01T06:52:36.057Z,994.59
2023-04-01T06:53:36.067Z,994.63
2023-04-01T06:54:36.056Z,994.63
2023-04-01T06:55:36.059Z,994.58
2023-04-01T06:56:36.055Z,994.62
2023-04-01T06:57:36.083Z,994.61
2023-04-01T06:58:36.049Z,994.64
2023-04-01T06:59:36.083Z,994.66
2023-04-01T07:00:36.065Z,994.60
2023-04-01T07:01:36.071Z,994.59
2023-04-01T07:02:36.072Z,994.63
2023-04-01T07:03:36.054Z,994.64
2023-04-01T07:04:36.102Z,994.62
2023-04-01T07:05:36.040Z,994.64
2023-04-01T07:06:36.034Z,994.65
2023-04-01T07:13:53.550Z,994.70
2023-04-01T07:14:53.525Z,994.67
2023-04-01T07:17:36.857Z,994.71
2023-04-01T07:19:54.447Z,994.71
2023-04-01T07:20:54.440Z,994.76
2023-04-01T07:21:54.434Z,994.74
2023-04-01T07:22:54.429Z,994.74
2023-04-01T07:23:54.429Z,994.75
2023-04-01T07:44:39.139Z,994.88
2023-04-01T07:46:30.892Z,994.89
2023-04-01T07:47:30.920Z,994.90
2023-04-01T07:48:30.873Z,994.88
2023-04-01T07:49:30.871Z,994.91
2023-04-01T07:50:30.881Z,994.92
2023-04-01T07:51:30.866Z,994.92
2023-04-01T07:52:30.878Z,994.93
2023-04-01T07:53:30.870Z,994.93
2023-04-01T07:54:30.862Z,994.92
2023-04-01T08:00:15.098Z,994.98
2023-04-01T08:02:17.689Z,995.04
2023-04-01T08:03:18.076Z,995.03
2023-04-01T08:04:17.743Z,995.05
2023-04-01T08:05:17.646Z,995.11
2023-04-01T08:06:17.653Z,995.07
2023-04-01T08:07:17.646Z,995.10
2023-04-01T08:08:17.644Z,995.08
2023-04-01T08:09:17.647Z,995.12
2023-04-01T08:10:17.642Z,995.14
2023-04-01T08:11:17.662Z,995.15
2023-04-01T08:12:17.638Z,995.17
2023-04-01T08:13:17.777Z,995.16
2023-04-01T08:14:17.634Z,995.14
2023-04-01T08:15:17.635Z,995.16
2023-04-01T08:16:17.738Z,995.19
2023-04-01T08:17:17.641Z,995.23
2023-04-01T08:18:17.664Z,995.23
2023-04-01T08:19:17.627Z,995.21
2023-04-01T08:20:17.629Z,995.22
2023-04-01T08:21:17.625Z,995.28
2023-04-01T08:22:17.624Z,995.27
2023-04-01T08:23:17.617Z,995.25
2023-04-01T08:24:17.621Z,995.30
2023-04-01T08:25:17.616Z,995.28
2023-04-01T08:26:17.616Z,995.32
2023-04-01T08:27:17.612Z,995.33
2023-04-01T08:28:17.616Z,995.36
2023-04-01T08:29:17.612Z,995.34
2023-04-01T08:30:17.626Z,995.34
2023-04-01T08:31:17.617Z,995.40
2023-04-01T08:32:17.635Z,995.35
2023-04-01T08:33:17.611Z,995.38
2023-04-01T08:34:17.630Z,995.43
2023-04-01T08:35:17.611Z,995.43
2023-04-01T08:36:17.662Z,995.43
2023-04-01T08:37:17.600Z,995.44
2023-04-01T08:38:17.599Z,995.42
2023-04-01T08:39:17.602Z,995.46
2023-04-01T08:40:17.599Z,995.47
2023-04-01T08:41:17.601Z,995.46
2023-04-01T08:42:17.596Z,995.48
2023-04-01T08:43:17.594Z,995.47
2023-04-01T08:44:17.598Z,995.52
2023-04-01T08:45:17.594Z,995.51
2023-04-01T08:46:17.643Z,995.48
2023-04-01T08:47:17.586Z,995.51
2023-04-01T08:48:17.615Z,995.49
2023-04-01T08:49:17.585Z,995.50
2023-04-01T08:50:17.588Z,995.51
2023-04-01T08:51:17.629Z,995.53
2023-04-01T08:52:17.587Z,995.57
2023-04-01T08:53:17.581Z,995.57
2023-04-01T08:54:17.579Z,995.57
2023-04-01T08:55:17.586Z,995.56
2023-04-01T08:56:17.583Z,995.57
2023-04-01T08:57:17.686Z,995.60
2023-04-01T08:58:17.576Z,995.56
2023-04-01T08:59:17.573Z,995.60
2023-04-01T09:00:17.576Z,995.60
2023-04-01T09:01:17.573Z,995.65
2023-04-01T09:02:17.612Z,995.63
2023-04-01T09:03:17.636Z,995.59
2023-04-01T09:04:17.656Z,995.61
2023-04-01T09:05:17.570Z,995.64
2023-04-01T09:06:17.574Z,995.65
2023-04-01T09:07:17.567Z,995.68
2023-04-01T09:08:17.573Z,995.62
2023-04-01T09:09:17.562Z,995.63
2023-04-01T09:10:17.569Z,995.64
2023-04-01T09:11:17.559Z,995.65
2023-04-01T09:12:17.558Z,995.66
2023-04-01T09:13:17.564Z,995.66
2023-04-01T09:14:17.561Z,995.66
2023-04-01T09:15:17.554Z,995.68
2023-04-01T09:16:17.605Z,995.71
2023-04-01T09:17:17.551Z,995.70
2023-04-01T09:18:17.553Z,995.73
2023-04-01T09:19:17.562Z,995.75
2023-04-01T09:20:17.573Z,995.78
2023-04-01T09:21:17.548Z,995.77
2023-04-01T09:22:17.549Z,995.79
2023-04-01T09:23:17.546Z,995.81
2023-04-01T09:24:17.552Z,995.86
2023-04-01T09:25:17.557Z,995.80
2023-04-01T09:26:17.551Z,995.86
2023-04-01T09:27:17.589Z,995.86
2023-04-01T09:28:17.548Z,995.87
2023-04-01T09:29:17.555Z,995.86
2023-04-01T09:30:17.548Z,995.87
2023-04-01T09:31:17.578Z,995.90
2023-04-01T09:32:17.545Z,995.94
2023-04-01T09:33:17.547Z,995.92
2023-04-01T09:34:17.547Z,995.92
2023-04-01T09:35:17.538Z,995.96
2023-04-01T09:36:17.619Z,995.95
2023-04-01T09:37:17.544Z,995.97
2023-04-01T09:38:17.543Z,995.98
2023-04-01T09:39:17.535Z,995.97
2023-04-01T09:40:17.546Z,995.98
2023-04-01T09:41:17.534Z,995.98
2023-04-01T09:42:17.533Z,995.97
2023-04-01T09:43:17.541Z,995.99
2023-04-01T09:44:17.529Z,996.01
2023-04-01T09:45:17.525Z,996.06
2023-04-01T09:46:17.577Z,996.04
2023-04-01T09:47:17.526Z,996.08
2023-04-01T09:48:17.535Z,996.11
2023-04-01T09:49:17.529Z,996.07
2023-04-01T09:50:17.528Z,996.12
2023-04-01T09:51:17.522Z,996.13
2023-04-01T09:52:17.551Z,996.09
2023-04-01T09:53:17.521Z,996.17
2023-04-01T09:54:17.519Z,996.14
2023-04-01T09:55:17.512Z,996.15
2023-04-01T09:56:17.516Z,996.18
2023-04-01T09:57:17.677Z,996.21
2023-04-01T09:58:17.522Z,996.18
2023-04-01T09:59:17.511Z,996.18
2023-04-01T10:00:17.509Z,996.22
2023-04-01T10:01:17.553Z,996.22
2023-04-01T10:02:17.511Z,996.23
2023-04-01T10:03:17.501Z,996.24
2023-04-01T10:04:17.506Z,996.25
2023-04-01T10:05:17.524Z,996.20
2023-04-01T10:06:17.561Z,996.28
2023-04-01T10:07:17.512Z,996.26
2023-04-01T10:08:17.518Z,996.28
2023-04-01T10:09:17.495Z,996.29
2023-04-01T10:10:17.646Z,996.32
2023-04-01T10:11:17.491Z,996.33
2023-04-01T10:12:17.629Z,996.30
2023-04-01T10:13:17.491Z,996.36
2023-04-01T10:14:17.498Z,996.34
2023-04-01T10:15:17.506Z,996.35
2023-04-01T10:16:17.536Z,996.35
2023-04-01T10:17:17.487Z,996.38
2023-04-01T10:18:17.522Z,996.39
2023-04-01T10:19:17.531Z,996.41
2023-04-01T10:20:17.543Z,996.43
2023-04-01T10:21:17.481Z,996.46
2023-04-01T10:22:17.487Z,996.41
2023-04-01T10:23:17.482Z,996.45
2023-04-01T10:24:17.500Z,996.44
2023-04-01T10:25:17.501Z,996.41
2023-04-01T10:26:17.476Z,996.42
2023-04-01T10:27:17.473Z,996.43
2023-04-01T10:28:17.471Z,996.40
2023-04-01T10:29:17.752Z,996.47
2023-04-01T10:30:17.472Z,996.44
2023-04-01T10:31:17.487Z,996.47
2023-04-01T10:32:17.492Z,996.43
2023-04-01T10:33:17.475Z,996.44
2023-04-01T10:34:17.470Z,996.46
2023-04-01T10:35:17.469Z,996.46
2023-04-01T10:36:17.557Z,996.44
2023-04-01T10:37:17.469Z,996.46
2023-04-01T10:38:17.465Z,996.48
2023-04-01T10:39:17.456Z,996.51
2023-04-01T10:40:17.505Z,996.51
2023-04-01T10:41:17.478Z,996.47
2023-04-01T10:42:17.454Z,996.53
2023-04-01T10:43:17.464Z,996.51
2023-04-01T10:44:17.456Z,996.52
2023-04-01T10:45:17.457Z,996.49
2023-04-01T10:46:17.608Z,996.52
2023-04-01T10:47:17.478Z,996.58
2023-04-01T10:48:17.453Z,996.55
2023-04-01T10:49:17.445Z,996.61
2023-04-01T10:50:17.452Z,996.58
2023-04-01T10:51:17.444Z,996.58
2023-04-01T10:52:17.452Z,996.60
2023-04-01T10:53:17.441Z,996.61
2023-04-01T10:54:17.470Z,996.59
2023-04-01T10:55:17.442Z,996.64
2023-04-01T10:56:17.462Z,996.61
2023-04-01T10:57:17.495Z,996.63
2023-04-01T10:58:17.444Z,996.61
2023-04-01T10:59:17.439Z,996.60
2023-04-01T11:00:17.439Z,996.66
2023-04-01T11:01:17.485Z,996.64
2023-04-01T11:02:17.486Z,996.66
2023-04-01T11:03:17.542Z,996.66
2023-04-01T11:04:17.436Z,996.65
2023-04-01T11:05:20.211Z,996.67
2023-04-01T11:06:17.441Z,996.65
2023-04-01T11:07:17.428Z,996.74
2023-04-01T11:08:17.429Z,996.69
2023-04-01T11:09:17.432Z,996.73
2023-04-01T11:10:17.424Z,996.69
2023-04-01T11:11:17.429Z,996.73
2023-04-01T11:12:17.449Z,996.75
2023-04-01T11:13:17.420Z,996.71
2023-04-01T11:14:17.426Z,996.74
2023-04-01T11:15:17.416Z,996.74
2023-04-01T11:16:18.610Z,996.76
2023-04-01T11:17:17.433Z,996.79
2023-04-01T11:18:17.421Z,996.79
2023-04-01T11:19:17.413Z,996.78
2023-04-01T11:20:17.418Z,996.82
2023-04-01T11:21:17.408Z,996.79
2023-04-01T11:22:17.413Z,996.83
2023-04-01T11:23:17.407Z,996.81
2023-04-01T11:24:17.410Z,996.79
2023-04-01T11:25:17.409Z,996.85
2023-04-01T11:26:17.407Z,996.85
2023-04-01T11:27:17.479Z,996.83
2023-04-01T11:28:17.427Z,996.83
2023-04-01T11:29:17.401Z,996.84
2023-04-01T11:30:17.408Z,996.87
2023-04-01T11:31:17.448Z,996.88
2023-04-01T11:32:17.406Z,996.87
2023-04-01T11:33:20.058Z,996.90
2023-04-01T11:34:17.395Z,996.96
2023-04-01T11:35:17.392Z,996.89
2023-04-01T11:36:17.483Z,996.93
2023-04-01T11:37:17.390Z,996.96
2023-04-01T11:38:17.397Z,996.95
2023-04-01T11:39:17.390Z,996.97
2023-04-01T11:40:17.391Z,996.95
2023-04-01T11:41:17.390Z,996.95
2023-04-01T11:42:17.388Z,997.00
2023-04-01T11:43:30.078Z,997.00
2023-04-01T11:44:17.425Z,997.03
2023-04-01T11:45:17.381Z,997.03
2023-04-01T11:46:17.429Z,997.09
2023-04-01T11:47:17.381Z,997.04
2023-04-01T11:48:17.377Z,997.11
2023-04-01T11:49:17.374Z,997.07
2023-04-01T11:50:17.376Z,997.05
2023-04-01T11:51:17.388Z,997.07
2023-04-01T11:52:17.385Z,997.08
2023-04-01T11:53:17.368Z,997.10
2023-04-01T11:54:17.372Z,997.09
2023-04-01T11:55:17.379Z,997.12
2023-04-01T11:56:17.376Z,997.17
2023-04-01T11:57:17.436Z,997.16
2023-04-01T11:58:17.366Z,997.15
2023-04-01T11:59:17.364Z,997.17
2023-04-01T12:00:17.396Z,997.27
2023-04-01T12:01:17.356Z,997.20
2023-04-01T12:02:19.299Z,997.28
2023-04-01T12:03:17.657Z,997.26
2023-04-01T12:04:17.417Z,997.28
2023-04-01T12:05:17.353Z,997.26
2023-04-01T12:06:17.355Z,997.31
2023-04-01T12:07:17.364Z,997.31
2023-04-01T12:08:17.355Z,997.33
2023-04-01T12:09:17.349Z,997.33
2023-04-01T12:10:17.351Z,997.33
2023-04-01T12:11:17.357Z,997.33
2023-04-01T12:12:17.358Z,997.37
2023-04-01T12:13:17.342Z,997.37
2023-04-01T12:14:17.349Z,997.36
2023-04-01T12:15:17.348Z,997.37
2023-04-01T12:16:17.410Z,997.39
2023-04-01T12:17:17.342Z,997.36
2023-04-01T12:18:17.339Z,997.40
2023-04-01T12:19:17.337Z,997.38
2023-04-01T12:20:17.336Z,997.40
2023-04-01T12:21:17.340Z,997.38
2023-04-01T12:22:17.340Z,997.41
2023-04-01T12:23:17.331Z,997.43
2023-04-01T12:24:17.328Z,997.43
2023-04-01T12:25:17.342Z,997.44
2023-04-01T12:26:17.320Z,997.47
2023-04-01T12:27:17.326Z,997.47
2023-04-01T12:28:17.323Z,997.55
2023-04-01T12:29:17.326Z,997.56
2023-04-01T12:30:17.317Z,997.54
2023-04-01T12:31:17.325Z,997.53
2023-04-01T12:32:17.420Z,997.58
2023-04-01T12:33:17.328Z,997.55
2023-04-01T12:34:17.312Z,997.54
2023-04-01T12:35:17.327Z,997.59
2023-04-01T12:36:17.307Z,997.55
2023-04-01T12:37:17.309Z,997.62
2023-04-01T12:38:17.880Z,997.62
2023-04-01T12:39:17.308Z,997.60
2023-04-01T12:40:17.304Z,997.66
2023-04-01T12:41:17.305Z,997.67
2023-04-01T12:42:17.300Z,997.65
2023-04-01T12:43:17.306Z,997.71
2023-04-01T12:44:17.301Z,997.67
2023-04-01T12:45:17.298Z,997.69
2023-04-01T12:46:17.328Z,997.71
2023-04-01T12:47:17.296Z,997.74
2023-04-01T12:48:17.324Z,997.73
2023-04-01T12:49:17.307Z,997.75
2023-04-01T12:50:17.308Z,997.74
2023-04-01T12:51:17.294Z,997.78
2023-04-01T12:52:17.284Z,997.79
2023-04-01T12:53:17.288Z,997.80
2023-04-01T12:54:17.288Z,997.84
2023-04-01T12:55:17.283Z,997.87
2023-04-01T12:56:17.275Z,997.84
2023-04-01T12:57:17.332Z,997.87
2023-04-01T12:58:17.276Z,997.87
2023-04-01T12:59:17.280Z,997.89
2023-04-01T13:00:17.276Z,997.84
2023-04-01T13:01:17.381Z,997.87
2023-04-01T13:02:17.267Z,997.91
2023-04-01T13:03:17.273Z,997.89
2023-04-01T13:04:17.326Z,997.91
2023-04-01T13:05:17.270Z,997.87
2023-04-01T13:06:19.128Z,997.95
2023-04-01T13:07:17.262Z,997.91
2023-04-01T13:08:17.276Z,997.91
2023-04-01T13:09:17.259Z,997.96
2023-04-01T13:10:17.261Z,997.95
2023-04-01T13:11:17.257Z,998.00
2023-04-01T13:12:17.350Z,998.00
2023-04-01T13:13:17.304Z,997.99